Time;durP1;ratioP1;P1;durP2;ratioP2;P2;SDS_P1;SDS_P2;PMS_P1;PMS_P2;Temp;Humidity;BMP_temperature;BMP_pressure;BME280_temperature;BME280_humidity;BME280_pressure;Samples;Min_cycle;Max_cycle;Signal;HPM_P1;HPM_P2
2022/04/09 00:01:36;;;;;;;15.65;3.35;;;;;;;2.50;100.00;100581.84;5204945;28;20026;-72
2022/04/09 00:04:07;;;;;;;20.95;3.20;;;;;;;2.51;100.00;100586.19;5205085;28;20018;-72
2022/04/09 00:06:37;;;;;;;20.38;3.10;;;;;;;2.47;100.00;100590.06;5204181;28;20558;-72
2022/04/09 00:09:08;;;;;;;20.98;3.45;;;;;;;2.49;100.00;100588.13;5204634;28;20025;-72
2022/04/09 00:11:38;;;;;;;23.42;3.63;;;;;;;2.50;100.00;100589.78;5204917;28;20037;-72
2022/04/09 00:14:08;;;;;;;19.13;3.28;;;;;;;2.51;100.00;100602.06;5204725;28;20025;-72
2022/04/09 00:16:39;;;;;;;18.38;3.10;;;;;;;2.47;100.00;100603.28;5204497;28;20064;-72
2022/04/09 00:19:10;;;;;;;21.75;3.40;;;;;;;2.52;100.00;100607.25;5203973;28;20030;-73
2022/04/09 00:21:40;;;;;;;18.77;3.22;;;;;;;2.51;100.00;100605.59;5204348;28;20075;-72
2022/04/09 00:24:11;;;;;;;20.02;3.60;;;;;;;2.53;100.00;100610.75;5204147;28;20053;-72
2022/04/09 00:26:41;;;;;;;19.60;3.47;;;;;;;2.52;100.00;100617.03;5204353;28;20032;-72
2022/04/09 00:29:11;;;;;;;14.02;3.33;;;;;;;2.51;100.00;100621.47;5204147;28;20036;-72
2022/04/09 00:31:42;;;;;;;18.13;4.25;;;;;;;2.49;100.00;100635.78;5203781;28;20446;-72
2022/04/09 00:34:12;;;;;;;38.90;7.05;;;;;;;2.47;100.00;100643.03;5192966;28;20076;-72
2022/04/09 00:36:43;;;;;;;26.92;4.55;;;;;;;2.49;100.00;100649.03;5204114;28;20105;-72
2022/04/09 00:39:13;;;;;;;30.05;4.50;;;;;;;2.55;100.00;100656.47;5204181;28;20029;-71
2022/04/09 00:41:47;;;;;;;26.35;4.85;;;;;;;2.52;100.00;100659.38;5204238;28;20052;-71
2022/04/09 00:44:18;;;;;;;34.45;6.53;;;;;;;2.55;100.00;100670.56;5203633;28;20112;-72
2022/04/09 00:46:49;;;;;;;30.85;5.20;;;;;;;2.49;100.00;100663.09;5203847;28;20108;-72
2022/04/09 00:49:20;;;;;;;24.50;5.20;;;;;;;2.48;100.00;100665.88;5203915;28;20026;-72
2022/04/09 00:51:53;;;;;;;25.27;5.45;;;;;;;2.44;100.00;100680.31;5203924;28;20029;-71
2022/04/09 00:54:25;;;;;;;25.55;5.10;;;;;;;2.38;100.00;100689.56;5202095;28;20028;-71
2022/04/09 00:57:01;;;;;;;28.15;4.88;;;;;;;2.38;100.00;100697.50;5203982;28;20017;-71
2022/04/09 00:59:36;;;;;;;31.60;4.50;;;;;;;2.32;100.00;100692.69;5203889;28;20116;-73
2022/04/09 01:02:06;;;;;;;32.50;5.55;;;;;;;2.30;100.00;100697.25;5203921;28;20505;-73
2022/04/09 01:04:41;;;;;;;24.52;6.72;;;;;;;2.31;100.00;100707.75;5203983;28;20029;-73
2022/04/09 01:07:13;;;;;;;20.05;3.33;;;;;;;2.32;100.00;100712.06;5204016;28;20100;-73
2022/04/09 01:09:45;;;;;;;23.10;3.95;;;;;;;2.36;100.00;100717.09;5204118;28;20083;-73
2022/04/09 01:12:16;;;;;;;20.88;3.10;;;;;;;2.34;100.00;100717.22;5204214;28;20064;-72
2022/04/09 01:14:47;;;;;;;16.58;3.63;;;;;;;2.34;100.00;100717.22;5203880;28;20490;-72
2022/04/09 01:17:18;;;;;;;19.95;3.40;;;;;;;2.33;100.00;100726.16;5203583;28;20025;-72
2022/04/09 01:19:49;;;;;;;19.52;4.47;;;;;;;2.33;100.00;100726.16;5203991;28;20029;-71
2022/04/09 01:22:20;;;;;;;30.85;3.47;;;;;;;2.27;100.00;100732.75;5203770;28;21412;-72
2022/04/09 01:24:50;;;;;;;19.25;3.55;;;;;;;2.21;100.00;100733.22;5203989;28;20112;-73
2022/04/09 01:27:21;;;;;;;20.65;3.58;;;;;;;2.14;100.00;100741.72;5203756;28;20136;-74
2022/04/09 01:29:51;;;;;;;18.40;3.67;;;;;;;2.14;100.00;100750.50;5203329;28;20026;-73
2022/04/09 01:32:22;;;;;;;20.83;5.20;;;;;;;2.14;100.00;100753.16;5203752;28;20116;-74
2022/04/09 01:34:52;;;;;;;21.45;2.95;;;;;;;2.16;100.00;100753.03;5196191;28;20064;-73
2022/04/09 01:37:23;;;;;;;24.63;3.30;;;;;;;2.18;100.00;100765.19;5203955;28;20021;-73
2022/04/09 01:39:54;;;;;;;16.17;3.85;;;;;;;2.17;100.00;100765.31;5203581;28;20021;-74
2022/04/09 01:42:26;;;;;;;17.90;4.10;;;;;;;2.17;100.00;100765.31;5203432;28;20021;-73
2022/04/09 01:44:57;;;;;;;19.10;3.60;;;;;;;2.13;100.00;100775.28;5203487;28;20026;-73
2022/04/09 01:47:28;;;;;;;16.02;3.35;;;;;;;2.18;100.00;100772.28;5203594;28;20101;-72
2022/04/09 01:49:58;;;;;;;14.90;5.13;;;;;;;2.18;100.00;100786.38;5203694;28;20121;-74
2022/04/09 01:52:29;;;;;;;22.58;4.30;;;;;;;2.17;100.00;100786.50;5203734;28;20029;-73
2022/04/09 01:55:00;;;;;;;24.10;3.83;;;;;;;2.10;100.00;100786.09;5203149;28;20036;-72
2022/04/09 01:57:33;;;;;;;18.25;4.57;;;;;;;2.02;100.00;100791.97;5203844;28;20034;-71
2022/04/09 02:00:08;;;;;;;18.48;5.15;;;;;;;2.03;100.00;100787.50;5203629;28;20029;-71
2022/04/09 02:02:39;;;;;;;20.02;4.68;;;;;;;2.00;100.00;100803.59;5203882;28;20025;-72
2022/04/09 02:05:12;;;;;;;30.38;4.75;;;;;;;1.96;100.00;100805.63;5202781;28;20105;-72
2022/04/09 02:07:44;;;;;;;38.95;7.15;;;;;;;1.93;100.00;100803.22;5203758;28;20025;-73
2022/04/09 02:10:21;;;;;;;23.15;4.32;;;;;;;1.87;100.00;100808.94;5203461;28;20018;-72
2022/04/09 02:12:52;;;;;;;28.30;5.05;;;;;;;1.83;100.00;100806.63;5205158;28;20053;-73
2022/04/09 02:15:22;;;;;;;22.63;4.45;;;;;;;1.78;100.00;100810.47;5207918;28;20359;-73
2022/04/09 02:17:53;;;;;;;20.25;5.10;;;;;;;1.74;100.00;100813.44;5207131;28;20104;-74
2022/04/09 02:20:24;;;;;;;27.27;5.20;;;;;;;1.67;100.00;100814.84;5207493;28;20021;-73
2022/04/09 02:22:55;;;;;;;23.02;5.20;;;;;;;1.62;100.00;100822.25;5207378;28;20034;-73
2022/04/09 02:25:25;;;;;;;25.83;5.47;;;;;;;1.58;100.00;100824.25;5206831;28;20084;-73
2022/04/09 02:27:56;;;;;;;28.45;5.72;;;;;;;1.59;100.00;100820.66;5207296;28;20080;-72
2022/04/09 02:30:26;;;;;;;19.48;5.38;;;;;;;1.54;100.00;100833.34;5206583;28;20063;-72
2022/04/09 02:32:57;;;;;;;21.05;5.43;;;;;;;1.52;100.00;100833.47;5207030;28;20033;-73
2022/04/09 02:35:28;;;;;;;22.42;5.50;;;;;;;1.49;100.00;100833.69;5199213;28;20025;-73
2022/04/09 02:37:59;;;;;;;24.08;5.43;;;;;;;1.46;100.00;100833.91;5207243;28;20033;-73
2022/04/09 02:40:29;;;;;;;20.20;5.43;;;;;;;1.40;100.00;100836.13;5206820;28;20551;-72
2022/04/09 02:43:00;;;;;;;25.58;5.57;;;;;;;1.36;100.00;100839.97;5206762;28;20426;-74
2022/04/09 02:45:30;;;;;;;26.80;5.40;;;;;;;1.31;100.00;100847.38;5206740;28;20045;-73
2022/04/09 02:48:01;;;;;;;23.80;5.30;;;;;;;1.26;100.00;100840.59;5205574;28;20033;-74
2022/04/09 02:50:31;;;;;;;24.40;4.93;;;;;;;1.22;100.00;100844.41;5206756;28;20053;-74
2022/04/09 02:53:01;;;;;;;19.60;5.57;;;;;;;1.21;100.00;100847.16;5206377;28;20067;-73
2022/04/09 02:55:32;;;;;;;28.27;6.97;;;;;;;1.20;100.00;100848.09;5206403;28;20453;-72
2022/04/09 02:58:03;;;;;;;23.70;6.13;;;;;;;1.22;100.00;100859.41;5205602;28;20087;-73
2022/04/09 03:00:33;;;;;;;30.75;5.78;;;;;;;1.21;100.00;100858.56;5206517;28;20030;-72
2022/04/09 03:03:04;;;;;;;38.58;5.70;;;;;;;1.23;100.00;100859.31;5206231;28;20071;-72
2022/04/09 03:05:35;;;;;;;28.30;5.70;;;;;;;1.25;100.00;100859.19;5205896;28;20597;-73
2022/04/09 03:08:06;;;;;;;39.08;5.35;;;;;;;1.29;100.00;100865.94;5206388;28;20039;-73
2022/04/09 03:10:36;;;;;;;18.52;5.25;;;;;;;1.31;100.00;100869.34;5206192;28;20021;-73
2022/04/09 03:13:07;;;;;;;19.65;4.97;;;;;;;1.42;100.00;100876.53;5206402;28;20032;-73
2022/04/09 03:15:37;;;;;;;28.05;5.05;;;;;;;1.37;100.00;100882.13;5205758;28;20018;-73
2022/04/09 03:18:10;;;;;;;34.22;5.00;;;;;;;1.37;100.00;100883.94;5205968;28;20029;-73
2022/04/09 03:20:40;;;;;;;32.20;5.50;;;;;;;1.31;100.00;100884.38;5204749;28;20033;-73
2022/04/09 03:23:11;;;;;;;23.77;4.72;;;;;;;1.27;100.00;100896.94;5206164;28;20067;-73
2022/04/09 03:25:41;;;;;;;28.20;5.10;;;;;;;1.22;100.00;100893.78;5205555;28;20021;-74
2022/04/09 03:28:12;;;;;;;18.95;5.00;;;;;;;1.16;100.00;100897.69;5206112;28;20127;-73
2022/04/09 03:30:44;;;;;;;20.85;4.53;;;;;;;1.11;100.00;100910.38;5205394;28;20033;-73
2022/04/09 03:33:14;;;;;;;23.00;4.55;;;;;;;1.05;100.00;100908.13;5203353;28;20026;-73
2022/04/09 03:35:47;;;;;;;15.75;4.53;;;;;;;1.02;100.00;100910.97;5198431;28;20023;-71
2022/04/09 03:38:18;;;;;;;21.88;3.97;;;;;;;1.02;100.00;100921.53;5205818;28;20033;-70
2022/04/09 03:40:49;;;;;;;29.98;4.85;;;;;;;0.99;100.00;100921.75;5205892;28;20545;-72
2022/04/09 03:43:19;;;;;;;20.10;4.80;;;;;;;0.98;100.00;100923.53;5205234;28;20037;-72
2022/04/09 03:45:49;;;;;;;16.52;4.40;;;;;;;1.01;100.00;100936.56;5205284;28;20063;-72
2022/04/09 03:48:20;;;;;;;25.95;4.68;;;;;;;1.09;100.00;100936.03;5205283;28;20068;-72
2022/04/09 03:50:50;;;;;;;17.98;4.05;;;;;;;1.15;100.00;100943.53;5204313;28;20025;-71
2022/04/09 03:53:21;;;;;;;17.38;4.15;;;;;;;1.20;100.00;100951.16;5205484;28;20029;-72
2022/04/09 03:55:52;;;;;;;18.55;4.65;;;;;;;1.27;100.00;100947.16;5204918;28;20444;-72
2022/04/09 03:58:24;;;;;;;19.15;4.18;;;;;;;1.38;100.00;100955.19;5205173;28;20025;-73
2022/04/09 04:00:54;;;;;;;30.60;5.00;;;;;;;1.46;100.00;100950.25;5205215;28;20421;-73
2022/04/09 04:03:26;;;;;;;20.40;4.30;;;;;;;1.51;100.00;100958.72;5205496;28;20017;-73
2022/04/09 04:05:56;;;;;;;30.63;5.53;;;;;;;1.57;100.00;100962.72;5204904;28;20029;-72
2022/04/09 04:08:27;;;;;;;33.25;9.85;;;;;;;1.56;100.00;100966.34;5204894;28;20083;-72
2022/04/09 04:10:57;;;;;;;26.25;7.13;;;;;;;1.59;100.00;100967.91;5205135;28;20128;-72
2022/04/09 04:13:27;;;;;;;27.58;5.63;;;;;;;1.62;100.00;100965.06;5205178;28;20032;-72
2022/04/09 04:15:59;;;;;;;29.75;5.53;;;;;;;1.61;100.00;100973.91;5204813;28;20572;-71
2022/04/09 04:18:29;;;;;;;28.52;5.00;;;;;;;1.57;100.00;100967.16;5204729;28;20183;-72
2022/04/09 04:21:00;;;;;;;22.10;5.85;;;;;;;1.60;100.00;100972.22;5204600;28;20029;-72
2022/04/09 04:23:30;;;;;;;21.50;4.80;;;;;;;1.58;100.00;100987.38;5204879;28;20028;-73
2022/04/09 04:26:02;;;;;;;29.05;7.22;;;;;;;1.55;100.00;100989.25;5204417;28;20387;-72
2022/04/09 04:28:32;;;;;;;21.42;5.65;;;;;;;1.57;100.00;100989.16;5205083;28;20036;-72
2022/04/09 04:31:04;;;;;;;22.08;5.80;;;;;;;1.52;100.00;101000.06;5204639;28;20029;-72
2022/04/09 04:33:36;;;;;;;20.33;4.60;;;;;;;1.51;100.00;101000.16;5201332;28;20093;-72
2022/04/09 04:36:07;;;;;;;276.13;109.78;;;;;;;1.54;100.00;101002.59;5199907;28;20048;-72
2022/04/09 04:38:37;;;;;;;38.03;13.10;;;;;;;1.53;100.00;101004.38;5204574;28;20056;-72
2022/04/09 04:41:08;;;;;;;18.75;4.68;;;;;;;1.54;100.00;101018.44;5204677;28;20041;-73
2022/04/09 04:43:38;;;;;;;27.65;4.28;;;;;;;1.54;100.00;101021.09;5204127;28;20032;-73
2022/04/09 04:46:09;;;;;;;24.95;4.63;;;;;;;1.54;100.00;101029.03;5204271;28;20014;-73
2022/04/09 04:48:39;;;;;;;32.05;7.63;;;;;;;1.53;100.00;101027.34;5204555;28;20033;-73
2022/04/09 04:51:10;;;;;;;26.98;5.47;;;;;;;1.52;100.00;101039.72;5204499;28;20104;-73
2022/04/09 04:53:40;;;;;;;29.77;6.05;;;;;;;1.53;100.00;101037.91;5204607;28;20033;-73
2022/04/09 04:56:11;;;;;;;25.33;4.05;;;;;;;1.54;100.00;101040.44;5203856;28;20435;-73
2022/04/09 04:58:41;;;;;;;21.65;6.43;;;;;;;1.61;100.00;101046.19;5204765;28;20068;-73
2022/04/09 05:01:12;;;;;;;21.27;6.60;;;;;;;1.66;100.00;101052.03;5205026;28;20029;-72
2022/04/09 05:03:42;;;;;;;17.63;4.70;;;;;;;1.64;100.00;101050.41;5203504;28;20064;-72
2022/04/09 05:06:12;;;;;;;22.13;6.88;;;;;;;1.64;100.00;101051.25;5204273;28;20045;-72
2022/04/09 05:08:43;;;;;;;30.05;6.15;;;;;;;1.66;100.00;101056.47;5204807;28;20056;-71
2022/04/09 05:11:13;;;;;;;25.00;4.18;;;;;;;1.67;100.00;101045.78;5205701;28;20075;-70
2022/04/09 05:13:44;;;;;;;17.40;4.15;;;;;;;1.69;100.00;101059.72;5204552;28;20029;-71
2022/04/09 05:16:15;;;;;;;22.85;4.18;;;;;;;1.73;100.00;101066.50;5204131;28;20030;-72
2022/04/09 05:18:45;;;;;;;38.08;4.82;;;;;;;1.73;100.00;101063.88;5204033;28;20074;-71
2022/04/09 05:21:16;;;;;;;27.60;4.13;;;;;;;1.74;100.00;101076.13;5203881;28;20513;-70
2022/04/09 05:23:46;;;;;;;25.90;4.15;;;;;;;1.79;100.00;101079.31;5202807;28;20375;-71
2022/04/09 05:26:17;;;;;;;25.73;4.45;;;;;;;1.88;100.00;101079.66;5203981;28;20036;-71
2022/04/09 05:28:53;;;;;;;25.73;4.60;;;;;;;1.92;100.00;101086.44;5203923;28;20033;-71
2022/04/09 05:31:27;;;;;;;24.23;5.00;;;;;;;1.93;100.00;101088.13;5203954;28;20026;-71
2022/04/09 05:33:57;;;;;;;29.40;12.37;;;;;;;1.99;100.00;101096.47;5195533;28;20029;-71
2022/04/09 05:36:28;;;;;;;27.70;6.55;;;;;;;2.07;100.00;101098.59;5203093;28;20471;-71
2022/04/09 05:38:58;;;;;;;20.33;6.63;;;;;;;2.05;100.00;101103.13;5204467;28;20027;-71
2022/04/09 05:41:29;;;;;;;37.50;5.88;;;;;;;2.15;100.00;101100.72;5204199;28;20163;-71
2022/04/09 05:44:00;;;;;;;25.90;4.63;;;;;;;2.23;100.00;101103.69;5203883;28;20030;-71
2022/04/09 05:46:30;;;;;;;17.70;4.30;;;;;;;2.35;100.00;101108.13;5204070;28;20052;-72
2022/04/09 05:49:00;;;;;;;34.97;6.85;;;;;;;2.45;100.00;101109.16;5207801;28;20037;-72
2022/04/09 05:51:32;;;;;;;25.15;4.55;;;;;;;2.53;100.00;101106.00;5208346;28;20025;-72
2022/04/09 05:54:03;;;;;;;28.27;4.53;;;;;;;2.52;100.00;101114.91;5208424;28;20030;-72
2022/04/09 05:56:34;;;;;;;19.35;5.15;;;;;;;2.62;100.00;101115.94;5207437;28;20075;-72
2022/04/09 05:59:05;;;;;;;25.52;4.60;;;;;;;2.73;100.00;101121.31;5207764;28;20519;-72
2022/04/09 06:01:35;;;;;;;21.00;5.55;;;;;;;2.87;100.00;101128.28;5207641;28;20502;-72
2022/04/09 06:04:06;;;;;;;24.98;4.10;;;;;;;3.01;100.00;101125.50;5207618;28;20120;-72
2022/04/09 06:06:37;;;;;;;18.33;4.32;;;;;;;3.27;100.00;101133.38;5207562;28;20025;-72
2022/04/09 06:09:08;;;;;;;27.40;7.28;;;;;;;3.59;100.00;101137.13;5207306;28;20033;-73
2022/04/09 06:11:39;;;;;;;34.50;15.20;;;;;;;3.97;100.00;101137.88;5207541;28;20506;-73
2022/04/09 06:14:10;;;;;;;29.70;8.75;;;;;;;4.02;100.00;101135.72;5207366;28;20560;-73
2022/04/09 06:16:41;;;;;;;36.63;8.27;;;;;;;4.36;100.00;101141.91;5207367;28;20021;-73
2022/04/09 06:19:11;;;;;;;19.58;5.50;;;;;;;4.86;100.00;101147.72;5207278;28;20463;-73
2022/04/09 06:21:42;;;;;;;24.98;4.93;;;;;;;5.54;100.00;101143.97;5207302;28;20068;-73
2022/04/09 06:24:12;;;;;;;32.40;5.50;;;;;;;6.32;100.00;101140.06;5206787;28;20486;-74
2022/04/09 06:26:43;;;;;;;20.13;4.72;;;;;;;6.78;100.00;101144.09;5207487;28;20024;-74
2022/04/09 06:29:13;;;;;;;22.45;4.97;;;;;;;7.60;100.00;101149.19;5205760;28;20029;-74
2022/04/09 06:31:47;;;;;;;27.95;5.15;;;;;;;7.71;100.00;101145.53;5206960;28;20031;-74
2022/04/09 06:34:18;;;;;;;13.98;4.28;;;;;;;8.08;100.00;101160.84;5198990;28;20389;-74
2022/04/09 06:36:49;;;;;;;24.52;4.82;;;;;;;8.52;100.00;101162.91;5205548;28;20394;-74
2022/04/09 06:39:20;;;;;;;28.85;6.03;;;;;;;9.45;100.00;101173.59;5206903;28;20060;-74
2022/04/09 06:41:51;;;;;;;15.48;4.13;;;;;;;9.30;100.00;101167.91;5206846;28;20048;-74
2022/04/09 06:44:21;;;;;;;18.77;4.63;;;;;;;8.87;100.00;101180.09;5206642;28;20022;-74
2022/04/09 06:46:52;;;;;;;30.55;4.28;;;;;;;8.22;100.00;101187.97;5206407;28;20044;-74
2022/04/09 06:49:23;;;;;;;21.70;4.32;;;;;;;7.64;100.00;101177.31;5206832;28;20025;-74
2022/04/09 06:51:53;;;;;;;21.85;4.20;;;;;;;7.85;100.00;101187.03;5206714;28;20056;-74
2022/04/09 06:54:25;;;;;;;23.73;5.38;;;;;;;8.53;100.00;101190.47;5206179;28;20226;-74
2022/04/09 06:56:55;;;;;;;30.60;4.90;;;;;;;8.96;100.00;101197.94;5206421;28;20029;-74
2022/04/09 06:59:26;;;;;;;28.20;4.50;;;;;;;9.80;100.00;101191.53;5206018;28;20032;-74
2022/04/09 07:01:56;;;;;;;18.05;3.97;;;;;;;10.12;100.00;101199.88;5206597;28;20382;-74
2022/04/09 07:04:26;;;;;;;17.30;3.92;;;;;;;10.16;100.00;101202.25;5206365;28;20028;-74
2022/04/09 07:06:57;;;;;;;14.73;3.60;;;;;;;10.23;100.00;101203.31;5206523;28;20036;-74
2022/04/09 07:09:27;;;;;;;16.85;5.38;;;;;;;10.31;100.00;101204.25;5205975;28;20483;-75
2022/04/09 07:11:58;;;;;;;15.60;4.35;;;;;;;10.73;100.00;101200.00;5206498;28;20112;-75
2022/04/09 07:14:28;;;;;;;18.60;4.13;;;;;;;10.94;100.00;101199.59;5206307;28;20040;-75
2022/04/09 07:17:03;;;;;;;21.45;4.13;;;;;;;11.01;100.00;101217.63;5206283;28;20032;-75
2022/04/09 07:19:33;;;;;;;16.33;3.80;;;;;;;11.41;100.00;101213.41;5206364;28;20098;-74
2022/04/09 07:22:05;;;;;;;21.25;4.88;;;;;;;11.34;100.00;101207.00;5205722;28;20022;-74
2022/04/09 07:24:35;;;;;;;24.92;4.65;;;;;;;11.49;100.00;101213.44;5205843;28;20029;-76
2022/04/09 07:27:06;;;;;;;19.70;4.82;;;;;;;11.60;100.00;101218.53;5205819;28;20035;-73
2022/04/09 07:29:36;;;;;;;15.73;3.80;;;;;;;12.07;100.00;101220.66;5206114;28;20061;-73
2022/04/09 07:32:07;;;;;;;12.65;3.60;;;;;;;12.56;100.00;101222.50;5206005;28;20029;-71
2022/04/09 07:34:38;;;;;;;17.45;4.32;;;;;;;11.96;100.00;101228.22;5195353;28;20033;-71
2022/04/09 07:37:09;;;;;;;17.92;4.40;;;;;;;12.51;100.00;101231.06;5205840;28;20537;-71
2022/04/09 07:39:40;;;;;;;19.63;4.18;;;;;;;12.60;100.00;101238.13;5203362;28;20032;-71
2022/04/09 07:42:10;;;;;;;19.95;4.32;;;;;;;12.99;100.00;101237.38;5205274;28;20422;-71
2022/04/09 07:44:42;;;;;;;18.75;4.43;;;;;;;12.90;100.00;101243.78;5204197;28;20044;-71
2022/04/09 07:47:12;;;;;;;25.85;5.57;;;;;;;12.99;100.00;101241.91;5199280;28;20040;-71
2022/04/09 07:49:44;;;;;;;21.02;5.38;;;;;;;12.66;97.07;101237.44;5200850;28;20037;-71
2022/04/09 07:52:15;;;;;;;20.98;4.70;;;;;;;12.73;98.62;101240.28;5203529;28;20029;-71
2022/04/09 07:54:45;;;;;;;19.65;5.10;;;;;;;12.80;100.00;101246.69;5203667;28;20067;-71
2022/04/09 07:57:16;;;;;;;18.52;3.80;;;;;;;13.11;98.32;101256.72;5203933;28;20391;-71
2022/04/09 07:59:46;;;;;;;22.85;4.95;;;;;;;12.54;100.00;101256.78;5203695;28;20245;-71
2022/04/09 08:02:17;;;;;;;15.05;4.13;;;;;;;13.00;99.85;101268.66;5203639;28;20049;-71
2022/04/09 08:04:47;;;;;;;19.05;4.10;;;;;;;12.91;98.12;101267.88;5203269;28;20084;-71
2022/04/09 08:07:18;;;;;;;18.20;3.92;;;;;;;12.85;100.00;101265.88;5203361;28;20464;-71
2022/04/09 08:09:48;;;;;;;22.52;3.85;;;;;;;12.76;100.00;101271.44;5203323;28;20450;-71
2022/04/09 08:12:19;;;;;;;23.15;4.63;;;;;;;13.10;92.21;101274.72;5203302;28;20053;-72
2022/04/09 08:14:49;;;;;;;11.63;3.55;;;;;;;12.94;87.70;101269.34;5203515;28;20482;-71
2022/04/09 08:17:20;;;;;;;17.65;3.70;;;;;;;12.59;95.53;101282.19;5203254;28;20013;-71
2022/04/09 08:19:51;;;;;;;16.40;4.38;;;;;;;12.49;100.00;101276.13;5203579;28;20378;-71
2022/04/09 08:22:22;;;;;;;13.85;3.17;;;;;;;12.28;96.38;101263.19;5201891;28;20037;-71
2022/04/09 08:24:53;;;;;;;12.38;3.20;;;;;;;12.33;100.00;101286.91;5202979;28;20023;-72
2022/04/09 08:27:23;;;;;;;20.80;3.92;;;;;;;12.64;96.38;101287.06;5202951;28;20029;-71
2022/04/09 08:29:54;;;;;;;17.38;4.05;;;;;;;13.14;84.26;101288.69;5203619;28;20386;-72
2022/04/09 08:32:25;;;;;;;28.73;10.38;;;;;;;12.70;85.37;101292.63;5201995;28;20034;-72
2022/04/09 08:34:55;;;;;;;19.02;4.00;;;;;;;12.22;94.55;101288.06;5198448;28;20048;-72
2022/04/09 08:37:26;;;;;;;12.77;3.10;;;;;;;12.47;89.41;101285.41;5201932;28;20268;-71
2022/04/09 08:39:57;;;;;;;20.73;3.22;;;;;;;12.59;82.62;101294.81;5203081;28;20029;-72
2022/04/09 08:42:30;;;;;;;14.30;2.88;;;;;;;12.74;87.86;101290.44;5202989;28;20025;-73
2022/04/09 08:45:01;;;;;;;10.32;2.60;;;;;;;13.18;85.58;101304.31;5202725;28;20067;-71
2022/04/09 08:47:35;;;;;;;14.57;3.33;;;;;;;13.42;80.02;101305.31;5202463;28;20041;-72
2022/04/09 08:50:09;;;;;;;11.30;3.05;;;;;;;13.60;83.88;101303.19;5202839;28;20025;-72
2022/04/09 08:52:42;;;;;;;11.60;2.88;;;;;;;13.67;79.69;101301.50;5203054;28;20029;-72
2022/04/09 08:55:13;;;;;;;12.05;3.47;;;;;;;13.80;75.08;101311.72;5202434;28;20052;-72
2022/04/09 08:57:43;;;;;;;9.20;2.85;;;;;;;13.74;70.10;101307.84;5201447;28;20056;-71
2022/04/09 09:00:17;;;;;;;9.98;2.95;;;;;;;13.43;73.30;101310.53;5202881;28;20104;-71
2022/04/09 09:02:49;;;;;;;16.65;3.53;;;;;;;13.66;76.79;101301.69;5203038;28;20251;-72
2022/04/09 09:05:39;;;;;;;18.50;3.92;;;;;;;13.69;72.96;101317.50;5202604;28;20029;-72
2022/04/09 09:08:11;;;;;;;16.23;3.88;;;;;;;13.06;75.71;101310.25;5202413;28;20040;-72
2022/04/09 09:10:42;;;;;;;12.32;3.80;;;;;;;13.00;79.73;101314.44;5203081;28;20101;-72
2022/04/09 09:13:13;;;;;;;11.50;3.65;;;;;;;12.50;75.14;101304.75;5203064;28;20554;-72
2022/04/09 09:15:47;;;;;;;14.73;3.25;;;;;;;12.37;81.21;101316.00;5203207;28;20096;-72
2022/04/09 09:18:22;;;;;;;13.30;3.75;;;;;;;12.32;85.04;101310.28;5203832;28;20486;-72
2022/04/09 09:20:55;;;;;;;16.45;4.03;;;;;;;11.70;94.38;101317.81;5202686;28;20036;-71
2022/04/09 09:23:30;;;;;;;12.20;2.60;;;;;;;12.49;89.45;101326.44;5203641;28;20055;-72
2022/04/09 09:26:03;;;;;;;14.15;2.97;;;;;;;12.81;75.05;101322.91;5202716;28;20037;-72
2022/04/09 09:28:34;;;;;;;9.10;3.28;;;;;;;12.77;74.63;101322.41;5203328;28;20089;-72
2022/04/09 09:31:05;;;;;;;11.85;3.30;;;;;;;12.75;80.02;101324.44;5203021;28;20042;-72
2022/04/09 09:33:36;;;;;;;10.88;3.13;;;;;;;12.45;73.01;101325.94;5200437;28;20105;-72
2022/04/09 09:36:06;;;;;;;10.23;2.60;;;;;;;11.74;75.58;101337.13;5198831;28;20494;-71
2022/04/09 09:38:40;;;;;;;7.20;2.70;;;;;;;11.59;78.15;101336.91;5202730;28;20021;-71
2022/04/09 09:41:23;;;;;;;6.97;2.22;;;;;;;11.46;75.86;101317.72;5203064;28;20059;-71
2022/04/09 09:44:12;;;;;;;11.75;3.42;;;;;;;11.23;81.57;101333.53;5202760;28;20032;-71
2022/04/09 09:46:45;;;;;;;23.65;6.50;;;;;;;10.74;84.82;101330.47;5201325;28;20021;-71
2022/04/09 09:49:17;;;;;;;19.75;7.93;;;;;;;10.93;92.95;101340.19;5202728;28;20034;-71
2022/04/09 09:52:07;;;;;;;12.23;3.60;;;;;;;11.55;84.39;101349.00;5202527;28;20064;-71
2022/04/09 09:54:57;;;;;;;10.55;4.32;;;;;;;11.06;78.14;101341.47;5202190;28;20025;-71
2022/04/09 09:57:29;;;;;;;13.80;3.80;;;;;;;10.68;86.03;101333.81;5202610;28;20033;-71
2022/04/09 10:00:04;;;;;;;14.23;4.30;;;;;;;10.10;88.16;101337.75;5189943;28;20045;-71
2022/04/09 10:02:37;;;;;;;10.00;3.45;;;;;;;10.58;88.60;101331.19;5202978;28;20033;-71
2022/04/09 10:05:08;;;;;;;8.45;2.70;;;;;;;11.44;79.65;101341.19;5201982;28;20108;-71
2022/04/09 10:07:39;;;;;;;6.05;3.20;;;;;;;11.48;81.50;101329.13;5202263;28;20112;-71
2022/04/09 10:10:09;;;;;;;8.52;2.85;;;;;;;11.10;87.47;101337.50;5202285;28;20121;-72
2022/04/09 10:12:41;;;;;;;9.80;3.08;;;;;;;11.56;94.81;101332.72;5201927;28;20108;-72
2022/04/09 10:15:12;;;;;;;8.52;3.20;;;;;;;11.35;79.76;101340.34;5201691;28;20040;-72
2022/04/09 10:17:43;;;;;;;5.93;2.70;;;;;;;10.85;86.18;101335.63;5202088;28;20033;-72
2022/04/09 10:20:14;;;;;;;7.75;2.70;;;;;;;11.10;87.77;101332.13;5201971;28;20030;-72
2022/04/09 10:22:46;;;;;;;8.82;3.20;;;;;;;11.06;86.87;101330.75;5202321;28;20044;-71
2022/04/09 10:25:18;;;;;;;7.47;2.85;;;;;;;11.27;86.22;101330.38;5201534;28;20071;-72
2022/04/09 10:27:53;;;;;;;8.77;2.58;;;;;;;11.67;79.45;101336.94;5202245;28;20061;-72
2022/04/09 10:30:24;;;;;;;5.75;1.80;;;;;;;11.70;81.84;101342.00;5202159;28;20040;-73
2022/04/09 10:32:57;;;;;;;5.45;2.30;;;;;;;11.27;85.32;101334.91;5201310;28;20025;-73
2022/04/09 10:35:38;;;;;;;11.05;3.22;;;;;;;11.65;80.66;101342.50;5194805;28;20033;-72
2022/04/09 10:38:10;;;;;;;5.05;2.10;;;;;;;12.08;79.77;101335.28;5205512;28;20029;-73
2022/04/09 10:41:14;;;;;;;6.50;2.60;;;;;;;12.61;76.67;101319.72;5205780;28;20116;-73
2022/04/09 10:43:44;;;;;;;7.63;2.17;;;;;;;13.04;69.69;101321.19;5204577;28;20099;-73
2022/04/09 10:46:20;;;;;;;5.68;2.47;;;;;;;13.21;71.41;101330.09;5205043;28;20065;-73
2022/04/09 10:48:52;;;;;;;;;;;;;;;13.11;64.42;101332.13;5205917;28;20108;-73
2022/04/09 10:51:22;;;;;;;6.15;1.42;;;;;;;12.62;60.26;101332.16;5205422;28;19953;-73
2022/04/09 10:53:53;;;;;;;5.13;2.17;;;;;;;11.90;62.86;101335.41;5205662;28;20108;-73
2022/04/09 10:56:29;;;;;;;5.38;1.80;;;;;;;11.50;66.64;101335.22;5205551;28;20351;-73
2022/04/09 10:59:38;;;;;;;8.27;1.85;;;;;;;10.87;64.74;101325.56;5206271;28;20075;-72
2022/04/09 11:02:10;;;;;;;3.85;1.38;;;;;;;10.90;67.08;101330.63;5205671;28;20372;-72
2022/04/09 11:04:42;;;;;;;5.35;1.23;;;;;;;11.34;69.51;101331.41;5205389;28;20063;-72
2022/04/09 11:07:32;;;;;;;6.20;1.60;;;;;;;11.49;61.09;101322.75;5205221;28;20037;-73
2022/04/09 11:10:03;;;;;;;3.50;1.00;;;;;;;11.72;59.39;101336.47;5193825;28;20521;-73
2022/04/09 11:12:51;;;;;;;6.03;1.40;;;;;;;12.05;59.75;101324.00;5205286;28;20033;-73
2022/04/09 11:15:22;;;;;;;4.85;1.13;;;;;;;11.90;57.91;101327.34;5204882;28;20048;-73
2022/04/09 11:18:00;;;;;;;4.78;1.10;;;;;;;12.15;66.34;101327.41;5204239;28;20017;-72
2022/04/09 11:20:34;;;;;;;5.57;1.63;;;;;;;12.44;58.70;101335.00;5205168;28;20025;-73
2022/04/09 11:23:20;;;;;;;4.45;1.30;;;;;;;12.36;58.90;101335.00;5205678;28;20057;-73
2022/04/09 11:25:50;;;;;;;4.55;1.30;;;;;;;11.83;64.36;101333.50;5204917;28;20545;-73
2022/04/09 11:28:21;;;;;;;6.80;1.23;;;;;;;11.47;63.67;101338.19;5205615;28;20120;-72
2022/04/09 11:31:09;;;;;;;1.60;0.75;;;;;;;11.28;58.68;101334.72;5205714;28;20035;-72
2022/04/09 11:33:56;;;;;;;9.95;1.40;;;;;;;11.51;60.12;101340.41;5201667;28;20030;-73
2022/04/09 11:36:27;;;;;;;2.90;1.20;;;;;;;11.74;60.25;101337.97;5203415;28;20052;-73
2022/04/09 11:38:59;;;;;;;5.50;1.48;;;;;;;11.43;56.71;101343.03;5205119;28;20548;-72